createdAt,value
2019-01-10T00:04:21.980Z,12.97
2019-01-10T00:09:41.360Z,6.20
2019-01-10T00:15:00.893Z,5.47
2019-01-10T00:20:20.536Z,6.47
2019-01-10T00:25:40.176Z,7.20
2019-01-10T00:31:00.745Z,8.60
2019-01-10T00:36:20.579Z,8.40
2019-01-10T00:41:41.127Z,7.63
2019-01-10T00:47:00.144Z,11.60
2019-01-10T00:52:19.808Z,8.23
2019-01-10T00:57:39.504Z,9.53
2019-01-10T01:02:59.191Z,8.67
2019-01-10T01:08:20.209Z,7.57
2019-01-10T01:13:39.840Z,10.17
2019-01-10T01:18:59.367Z,9.87
2019-01-10T01:24:19.425Z,9.40
2019-01-10T01:29:39.228Z,9.57
2019-01-10T01:34:58.984Z,10.73
2019-01-10T01:40:19.119Z,12.00
2019-01-10T01:45:38.692Z,11.27
2019-01-10T01:50:58.625Z,12.03
2019-01-10T01:56:17.663Z,10.77
2019-01-10T02:01:36.988Z,9.10
2019-01-10T02:06:56.241Z,11.00
2019-01-10T02:12:15.976Z,11.43
2019-01-10T02:17:36.433Z,9.10
2019-01-10T02:22:56.159Z,7.60
2019-01-10T02:28:15.288Z,7.97
2019-01-10T02:33:35.923Z,7.13
2019-01-10T02:38:55.796Z,9.43
2019-01-10T02:44:15.209Z,7.37
2019-01-10T02:49:34.868Z,9.07
2019-01-10T02:54:54.928Z,5.67
2019-01-10T03:00:21.058Z,10.77
2019-01-10T03:05:41.008Z,9.23
2019-01-10T03:11:01.243Z,8.73
2019-01-10T03:16:20.293Z,9.33
2019-01-10T03:21:39.396Z,8.87
2019-01-10T03:26:59.053Z,13.90
2019-01-10T03:32:18.846Z,9.87
2019-01-10T03:37:39.076Z,9.60
2019-01-10T03:42:58.621Z,8.90
2019-01-10T03:48:18.217Z,9.33
2019-01-10T03:53:37.637Z,9.83
2019-01-10T03:58:56.636Z,8.90
2019-01-10T04:04:16.158Z,8.03
2019-01-10T04:09:35.541Z,8.17
2019-01-10T04:14:54.999Z,10.03
2019-01-10T04:20:16.556Z,8.30
2019-01-10T04:25:35.658Z,6.30
2019-01-10T04:30:55.610Z,6.97
2019-01-10T04:36:15.482Z,7.73
2019-01-10T04:41:34.948Z,8.40
2019-01-10T04:46:54.941Z,12.33
2019-01-10T04:52:15.215Z,12.00
2019-01-10T04:57:34.340Z,11.87
2019-01-10T05:02:53.851Z,16.53
2019-01-10T05:08:13.721Z,27.67
2019-01-10T05:13:32.980Z,40.33
2019-01-10T05:18:53.211Z,18.80
2019-01-10T05:24:12.920Z,36.17
2019-01-10T05:29:32.342Z,79.47
2019-01-10T05:34:52.219Z,30.37
2019-01-10T05:40:11.694Z,17.27
2019-01-10T05:45:31.760Z,17.73
2019-01-10T05:50:53.181Z,11.97
2019-01-10T05:56:15.593Z,13.90
2019-01-10T06:01:34.880Z,12.87
2019-01-10T06:06:53.597Z,13.10
2019-01-10T06:12:13.425Z,18.93
2019-01-10T06:17:33.206Z,17.63
2019-01-10T06:22:52.598Z,215.27
2019-01-10T06:28:11.932Z,230.07
2019-01-10T06:33:32.023Z,63.83
2019-01-10T06:38:51.433Z,18.20
2019-01-10T06:44:10.992Z,16.60
2019-01-10T06:49:30.707Z,20.20
2019-01-10T06:54:56.575Z,13.30
2019-01-10T07:00:13.101Z,31.00
2019-01-10T07:05:33.173Z,90.77
2019-01-10T07:10:52.536Z,35.37
2019-01-10T07:16:11.673Z,93.10
2019-01-10T07:21:36.677Z,21.07
2019-01-10T07:26:59.805Z,15.00
2019-01-10T07:32:19.710Z,16.27
2019-01-10T07:37:40.587Z,19.63
2019-01-10T07:43:00.644Z,29.70
2019-01-10T07:48:20.301Z,63.43
2019-01-10T07:53:39.549Z,37.53
2019-01-10T07:58:59.279Z,19.57
2019-01-10T08:04:18.841Z,110.97
2019-01-10T08:09:38.939Z,87.00
2019-01-10T08:14:58.693Z,30.83
2019-01-10T08:20:18.328Z,53.50
2019-01-10T08:25:37.788Z,21.80
2019-01-10T08:30:57.557Z,23.03
2019-01-10T08:36:16.737Z,31.07
2019-01-10T08:41:36.529Z,16.60
2019-01-10T08:46:56.367Z,15.53
2019-01-10T08:52:15.640Z,16.77
2019-01-10T08:57:35.060Z,19.40
2019-01-10T09:02:55.287Z,23.33
2019-01-10T09:08:15.151Z,12.73
2019-01-10T09:13:34.349Z,19.13
2019-01-10T09:18:54.827Z,14.63
2019-01-10T09:24:14.708Z,16.27
2019-01-10T09:29:34.676Z,14.57
2019-01-10T09:34:55.417Z,15.70
2019-01-10T09:40:16.569Z,19.97
2019-01-10T09:45:43.047Z,20.27
2019-01-10T09:50:55.716Z,23.23
2019-01-10T09:56:15.681Z,25.90
2019-01-10T10:01:35.264Z,24.67
2019-01-10T10:06:54.960Z,27.43
2019-01-10T10:12:13.950Z,36.80
2019-01-10T10:17:33.532Z,41.57
2019-01-10T10:22:52.504Z,57.80
2019-01-10T10:28:12.137Z,62.60
2019-01-10T10:33:32.045Z,55.97
2019-01-10T10:38:52.105Z,70.93
2019-01-10T10:44:11.812Z,64.43
2019-01-10T10:49:33.289Z,83.77
2019-01-10T10:54:53.743Z,40.03
2019-01-10T11:00:21.895Z,74.80
2019-01-10T11:05:41.727Z,65.33
2019-01-10T11:11:01.308Z,60.20
2019-01-10T11:16:21.129Z,38.80
2019-01-10T11:21:40.364Z,73.73
2019-01-10T11:26:59.676Z,105.93
2019-01-10T11:32:19.163Z,76.50
2019-01-10T11:37:38.680Z,119.10
2019-01-10T11:42:58.626Z,104.67
2019-01-10T11:48:17.644Z,100.60
2019-01-10T11:53:38.435Z,119.60
2019-01-10T11:58:57.571Z,64.33
2019-01-10T12:04:17.004Z,94.80
2019-01-10T12:09:36.145Z,63.37
2019-01-10T12:14:55.564Z,130.83
2019-01-10T12:20:15.728Z,81.13
2019-01-10T12:25:35.662Z,123.70
2019-01-10T12:30:55.196Z,90.63
2019-01-10T12:36:14.753Z,124.93
2019-01-10T12:41:35.962Z,160.43
2019-01-10T12:46:56.796Z,69.40
2019-01-10T12:52:16.357Z,108.40
2019-01-10T12:57:35.776Z,115.70
2019-01-10T13:02:55.955Z,85.00
2019-01-10T13:08:15.411Z,44.70
2019-01-10T13:13:35.358Z,39.90
2019-01-10T13:18:54.655Z,69.63
2019-01-10T13:24:13.736Z,75.37
2019-01-10T13:29:34.501Z,54.40
2019-01-10T13:34:54.712Z,93.53
2019-01-10T13:40:15.795Z,54.67
2019-01-10T13:45:34.018Z,79.87
2019-01-10T13:50:53.950Z,59.80
2019-01-10T13:56:13.438Z,51.90
2019-01-10T14:01:33.745Z,31.30
2019-01-10T14:06:53.791Z,83.60
2019-01-10T14:12:13.136Z,87.60
2019-01-10T14:17:32.837Z,187.87
2019-01-10T14:22:52.779Z,57.67
2019-01-10T14:28:13.461Z,101.20
2019-01-10T14:33:32.334Z,28.97
2019-01-10T14:38:51.967Z,38.63
2019-01-10T14:44:12.376Z,33.93
2019-01-10T14:49:31.261Z,39.50
2019-01-10T14:54:50.431Z,52.40
2019-01-10T15:00:15.603Z,58.30
2019-01-10T15:05:35.542Z,73.00
2019-01-10T15:10:55.420Z,41.07
2019-01-10T15:16:14.788Z,61.63
2019-01-10T15:21:34.870Z,33.27
2019-01-10T15:26:53.892Z,33.93
2019-01-10T15:32:14.018Z,56.90
2019-01-10T15:37:33.536Z,56.13
2019-01-10T15:42:53.533Z,92.30
2019-01-10T15:48:13.170Z,61.40
2019-01-10T15:53:32.390Z,38.53
2019-01-10T15:58:51.764Z,67.53
2019-01-10T16:04:11.809Z,59.73
2019-01-10T16:09:31.201Z,56.97
2019-01-10T16:14:50.630Z,239.73
2019-01-10T16:20:09.821Z,109.40
2019-01-10T16:25:30.832Z,38.53
2019-01-10T16:30:50.503Z,74.30
2019-01-10T16:36:11.107Z,130.87
2019-01-10T16:41:32.035Z,169.53
2019-01-10T16:46:52.194Z,223.63
2019-01-10T16:52:11.681Z,231.57
2019-01-10T16:57:32.120Z,75.93
2019-01-10T17:02:53.091Z,92.80
2019-01-10T17:08:12.361Z,119.20
2019-01-10T17:13:32.392Z,63.43
2019-01-10T17:18:52.245Z,155.10
2019-01-10T17:24:13.504Z,80.13
2019-01-10T17:29:33.256Z,91.83
2019-01-10T17:34:52.932Z,62.60
2019-01-10T17:40:14.666Z,76.50
2019-01-10T17:45:35.741Z,60.43
2019-01-10T17:50:56.275Z,37.83
2019-01-10T17:56:16.269Z,58.80
2019-01-10T18:01:36.711Z,120.63
2019-01-10T18:06:56.961Z,71.63
2019-01-10T18:12:17.905Z,366.00
2019-01-10T18:17:38.679Z,215.67
2019-01-10T18:22:59.458Z,127.07
2019-01-10T18:28:19.208Z,105.53
2019-01-10T18:33:39.011Z,102.50
2019-01-10T18:38:59.131Z,93.63
2019-01-10T18:44:18.528Z,83.03
2019-01-10T18:49:38.463Z,140.47
2019-01-10T18:55:00.321Z,63.90
2019-01-10T19:00:24.560Z,110.87
2019-01-10T19:05:45.439Z,62.27
2019-01-10T19:11:05.736Z,27.53
2019-01-10T19:16:27.540Z,70.57
2019-01-10T19:21:48.024Z,48.17
2019-01-10T19:27:08.810Z,82.33
2019-01-10T19:32:29.656Z,83.50
2019-01-10T19:37:48.960Z,88.50
2019-01-10T19:43:10.005Z,160.87
2019-01-10T19:48:30.412Z,82.70
2019-01-10T19:53:52.121Z,69.40
2019-01-10T19:59:13.187Z,39.57
2019-01-10T20:04:33.837Z,19.00
2019-01-10T20:09:54.116Z,15.07
2019-01-10T20:15:13.759Z,16.10
2019-01-10T20:20:35.896Z,20.80
2019-01-10T20:25:55.370Z,69.30
2019-01-10T20:31:16.866Z,127.53
2019-01-10T20:36:37.352Z,48.97
2019-01-10T20:42:01.793Z,29.77
2019-01-10T20:47:17.741Z,32.50
2019-01-10T20:52:38.248Z,50.73
2019-01-10T20:57:57.932Z,44.23
2019-01-10T21:03:18.460Z,157.07
2019-01-10T21:08:37.958Z,82.83
2019-01-10T21:13:58.942Z,50.73
2019-01-10T21:19:19.244Z,58.13
2019-01-10T21:24:39.458Z,22.60
2019-01-10T21:30:00.474Z,49.70
2019-01-10T21:35:20.878Z,17.67
2019-01-10T21:40:40.816Z,108.60
2019-01-10T21:46:01.407Z,27.97
2019-01-10T21:51:22.016Z,19.53
2019-01-10T21:56:42.490Z,62.07
2019-01-10T22:02:02.689Z,34.43
2019-01-10T22:07:22.841Z,52.20
2019-01-10T22:12:42.348Z,30.67
2019-01-10T22:18:01.996Z,21.90
2019-01-10T22:23:22.284Z,15.43
2019-01-10T22:28:43.620Z,25.23
2019-01-10T22:34:04.172Z,20.63
2019-01-10T22:39:25.403Z,6.80
2019-01-10T22:44:44.635Z,11.33
2019-01-10T22:50:05.252Z,10.20
2019-01-10T22:55:24.704Z,9.73
2019-01-10T23:01:08.989Z,8.30
2019-01-10T23:06:31.879Z,12.37
2019-01-10T23:11:51.915Z,8.03
2019-01-10T23:17:11.002Z,7.03
2019-01-10T23:22:30.866Z,9.93
2019-01-10T23:27:51.942Z,9.00
2019-01-10T23:33:11.688Z,10.30
2019-01-10T23:38:32.169Z,14.47
2019-01-10T23:43:52.673Z,11.33
2019-01-10T23:49:13.252Z,8.83
2019-01-10T23:54:34.237Z,8.87
2019-01-10T23:59:56.706Z,8.53
